createdAt,value
2023-04-10T07:36:59.776Z,42.15
2023-04-10T07:39:31.668Z,42.19
2023-04-10T07:42:00.192Z,42.16
2023-04-10T07:44:28.787Z,42.19
2023-04-10T07:46:57.716Z,42.00
2023-04-10T07:49:26.105Z,42.22
2023-04-10T07:51:54.588Z,42.27
2023-04-10T07:54:23.127Z,42.27
2023-04-10T07:56:55.114Z,42.20
2023-04-10T07:59:23.602Z,42.16
2023-04-10T08:01:54.023Z,42.20
2023-04-10T08:04:22.497Z,42.25
2023-04-10T08:06:51.051Z,42.25
2023-04-10T08:09:25.241Z,42.28
2023-04-10T08:12:09.158Z,42.25
2023-04-10T08:14:40.711Z,42.15
2023-04-10T08:17:17.370Z,42.35
2023-04-10T08:19:45.819Z,42.48
2023-04-10T08:22:15.764Z,42.45
2023-04-10T08:24:44.063Z,42.59
2023-04-10T08:27:16.297Z,42.61
2023-04-10T08:29:46.297Z,42.43
2023-04-10T08:32:14.658Z,42.47
2023-04-10T08:34:44.609Z,42.44
2023-04-10T08:37:16.390Z,42.54
2023-04-10T08:40:36.287Z,42.40
2023-04-10T08:43:11.918Z,42.43
2023-04-10T08:53:35.849Z,42.27
2023-04-10T09:00:33.804Z,42.57
2023-04-10T09:03:09.133Z,42.57
2023-04-10T09:05:43.409Z,42.48
2023-04-10T09:08:20.546Z,42.58
2023-04-10T09:10:54.505Z,42.62
2023-04-10T09:18:33.758Z,42.51
2023-04-10T09:21:42.070Z,42.49
2023-04-10T09:24:50.909Z,42.58
2023-04-10T09:31:32.487Z,42.76
2023-04-10T09:35:20.930Z,42.83
2023-04-10T09:39:25.659Z,42.54
2023-04-10T10:01:53.270Z,42.71
2023-04-10T10:05:23.987Z,43.09
2023-04-10T10:09:04.570Z,42.79
2023-04-10T10:11:53.622Z,43.02
2023-04-10T17:41:17.452Z,42.69
2023-04-10T17:43:45.711Z,42.81
2023-04-10T17:46:34.195Z,42.86
2023-04-10T17:49:07.115Z,42.92
2023-04-10T17:51:35.451Z,42.86
2023-04-10T17:54:06.667Z,42.79
2023-04-10T17:56:41.668Z,42.94
2023-04-10T17:59:10.234Z,42.86
2023-04-10T18:01:38.497Z,42.88
2023-04-10T18:04:07.103Z,42.90
2023-04-10T18:06:37.701Z,42.80
2023-04-10T18:09:06.380Z,42.88
2023-04-10T18:11:37.530Z,43.04
2023-04-10T18:14:13.346Z,42.92
2023-04-10T18:16:41.990Z,42.92
2023-04-10T18:19:10.307Z,43.00
2023-04-10T18:21:41.459Z,42.94
2023-04-10T18:24:11.008Z,42.92
2023-04-10T18:26:40.698Z,42.91
2023-04-10T18:29:11.982Z,42.95
2023-04-10T18:31:46.913Z,42.98
2023-04-10T18:34:20.164Z,42.86
2023-04-10T18:36:48.642Z,42.96
2023-04-10T18:39:20.700Z,43.10
2023-04-10T18:41:49.214Z,42.90
2023-04-10T18:44:20.825Z,42.88
2023-04-10T18:47:01.239Z,42.90
2023-04-10T18:49:35.357Z,43.03
2023-04-10T18:52:07.655Z,42.96
2023-04-10T18:54:39.045Z,42.99
2023-04-10T18:58:00.391Z,42.85
2023-04-10T19:00:32.394Z,42.94
2023-04-10T19:03:03.769Z,42.97
2023-04-10T19:05:39.025Z,43.01
2023-04-10T19:11:21.727Z,43.17
2023-04-10T19:13:58.196Z,42.91
2023-04-10T19:16:28.399Z,43.15
2023-04-10T19:18:59.094Z,43.03
2023-04-10T19:21:35.733Z,43.01
2023-04-10T19:24:31.492Z,43.19
2023-04-10T19:27:26.596Z,43.10
2023-04-10T19:30:36.201Z,43.15
2023-04-10T19:36:01.889Z,42.99
2023-04-10T19:38:41.891Z,43.07
2023-04-10T19:41:17.175Z,43.01
2023-04-10T19:43:45.537Z,42.99
2023-04-10T19:46:21.028Z,42.97
2023-04-10T19:49:02.178Z,42.99
2023-04-10T19:51:30.642Z,42.97
2023-04-10T19:53:58.864Z,42.93
2023-04-10T19:56:28.718Z,43.03
2023-04-10T19:58:57.102Z,42.93
2023-04-10T20:01:28.910Z,42.96
2023-04-10T20:03:59.958Z,42.88
2023-04-10T20:06:33.186Z,42.99
2023-04-10T20:09:04.741Z,43.01
2023-04-10T20:11:33.432Z,42.93
2023-04-10T20:14:03.948Z,42.74
2023-04-10T20:16:32.087Z,42.86
2023-04-10T20:19:01.862Z,42.86
2023-04-10T20:21:29.868Z,42.86
2023-04-10T20:23:58.492Z,42.69
2023-04-10T20:26:26.953Z,42.85
2023-04-10T20:28:55.234Z,42.71
2023-04-10T20:31:34.593Z,42.77
2023-04-10T20:34:11.296Z,42.66
2023-04-10T20:36:49.601Z,42.59
2023-04-10T20:42:30.996Z,42.64
2023-04-10T20:44:59.504Z,42.57
2023-04-10T20:47:31.031Z,42.63
2023-04-10T20:50:12.992Z,42.68
2023-04-10T20:52:45.713Z,42.64
2023-04-10T20:55:21.821Z,42.68
2023-04-10T20:57:53.578Z,42.71
2023-04-10T21:00:50.442Z,42.72
2023-04-10T21:07:13.444Z,42.62
2023-04-10T21:09:42.442Z,42.71
2023-04-10T21:12:13.768Z,42.64
2023-04-10T21:14:51.463Z,42.63
2023-04-10T21:20:07.414Z,42.70
2023-04-10T21:22:45.647Z,42.65
2023-04-10T21:25:19.830Z,42.58
2023-04-10T21:27:50.325Z,42.86
2023-04-10T21:30:19.316Z,42.74
2023-04-10T21:32:49.488Z,42.63
2023-04-10T21:35:18.383Z,42.69
2023-04-10T21:37:47.990Z,42.76
2023-04-10T21:40:16.931Z,42.70
2023-04-10T21:42:48.774Z,42.80
2023-04-10T21:45:21.145Z,42.64
2023-04-10T21:47:52.660Z,42.79
2023-04-10T21:50:35.989Z,42.79
2023-04-10T21:53:12.003Z,42.78
2023-04-10T21:55:45.094Z,42.81
2023-04-10T21:58:13.283Z,42.81
2023-04-10T22:00:46.941Z,42.91
2023-04-10T22:03:20.017Z,42.82
2023-04-10T22:05:50.620Z,42.84
2023-04-10T22:08:21.766Z,42.74
2023-04-10T22:10:51.176Z,42.69
2023-04-10T22:13:30.462Z,42.66
2023-04-10T22:15:59.233Z,42.71
2023-04-10T22:18:27.351Z,42.68
2023-04-10T22:20:55.441Z,42.85
2023-04-10T22:23:26.614Z,42.77
2023-04-10T22:26:05.122Z,42.64
2023-04-10T22:29:14.782Z,42.64
2023-04-10T22:31:43.646Z,42.69
2023-04-10T22:34:11.881Z,42.77
2023-04-10T22:36:40.080Z,42.64
2023-04-10T22:39:09.726Z,42.79
2023-04-10T22:41:40.438Z,42.73
2023-04-10T22:44:08.526Z,42.50
2023-04-10T22:46:40.289Z,42.56
2023-04-10T22:49:11.502Z,42.50
2023-04-10T22:51:39.600Z,42.64
2023-04-10T22:54:07.748Z,42.66
2023-04-10T22:56:37.981Z,42.48
2023-04-10T22:59:06.649Z,42.52
